Time;durP1;ratioP1;P1;durP2;ratioP2;P2;SDS_P1;SDS_P2;PMS_P1;PMS_P2;Temp;Humidity;BMP_temperature;BMP_pressure;BME280_temperature;BME280_humidity;BME280_pressure;Samples;Min_cycle;Max_cycle;Signal;HPM_P1;HPM_P2
2022/12/03 00:02:00;;;;;;;;;42.00;32.25;;;;;5.70;72.76;101317.59;5038866;28;45567;-72
2022/12/03 00:04:26;;;;;;;;;51.00;37.75;;;;;5.64;72.79;101304.41;5037287;28;45458;-63
2022/12/03 00:06:51;;;;;;;;;50.50;39.50;;;;;5.63;72.34;101300.94;5044523;28;45447;-63
2022/12/03 00:09:17;;;;;;;;;54.25;39.25;;;;;5.61;72.43;101305.19;5048908;28;45638;-65
2022/12/03 00:11:43;;;;;;;;;52.25;37.25;;;;;5.61;72.29;101310.38;5032421;28;45627;-63
2022/12/03 00:14:08;;;;;;;;;54.25;40.00;;;;;5.58;72.68;101294.72;5032220;28;45469;-64
2022/12/03 00:16:34;;;;;;;;;55.75;38.50;;;;;5.68;72.29;101304.56;5040303;28;45386;-64
2022/12/03 00:18:59;;;;;;;;;50.00;39.25;;;;;5.67;71.94;101304.50;5037747;28;45525;-64
2022/12/03 00:21:25;;;;;;;;;54.00;39.75;;;;;5.57;71.92;101285.13;5036058;28;45521;-63
2022/12/03 00:23:50;;;;;;;;;49.50;38.00;;;;;5.59;71.96;101298.19;5032836;28;45863;-63
2022/12/03 00:26:16;;;;;;;;;53.25;41.50;;;;;5.66;72.31;101294.94;5033328;28;45512;-66
2022/12/03 00:28:41;;;;;;;;;55.25;40.00;;;;;5.62;72.12;101293.94;5036531;28;46111;-64
2022/12/03 00:31:07;;;;;;;;;52.50;41.50;;;;;5.62;71.64;101303.47;5026174;28;45456;-64
2022/12/03 00:33:32;;;;;;;;;49.75;38.25;;;;;5.61;71.79;101291.31;5032345;28;45424;-64
2022/12/03 00:35:58;;;;;;;;;51.50;40.00;;;;;5.53;71.83;101286.78;5032708;28;45327;-63
2022/12/03 00:38:23;;;;;;;;;51.75;39.25;;;;;5.46;71.69;101295.22;5038846;28;46159;-64
2022/12/03 00:40:49;;;;;;;;;51.75;40.50;;;;;5.47;71.83;101303.88;5029819;28;45806;-63
2022/12/03 00:43:14;;;;;;;;;49.50;36.75;;;;;5.46;72.37;101295.22;5052680;28;45592;-65
2022/12/03 00:45:40;;;;;;;;;54.50;42.00;;;;;5.53;71.72;101291.09;5026040;28;45391;-66
2022/12/03 00:48:05;;;;;;;;;55.75;40.00;;;;;5.36;71.51;101274.94;5016862;28;46103;-64
2022/12/03 00:50:31;;;;;;;;;49.75;38.25;;;;;5.41;71.98;101281.19;5028899;28;45396;-63
2022/12/03 00:52:56;;;;;;;;;51.25;41.50;;;;;5.35;71.49;101264.53;5045233;28;45677;-64
2022/12/03 00:55:22;;;;;;;;;55.50;41.50;;;;;5.27;71.84;101270.38;5035776;28;45598;-65
2022/12/03 00:57:47;;;;;;;;;49.75;38.25;;;;;5.34;72.67;101284.44;5044554;28;47096;-65
2022/12/03 01:00:14;;;;;;;;;51.25;39.50;;;;;5.33;71.87;101280.06;5041485;28;45366;-65
2022/12/03 01:02:39;;;;;;;;;51.50;36.50;;;;;5.35;72.43;101286.19;5056978;28;45957;-66
2022/12/03 01:05:05;;;;;;;;;50.25;37.25;;;;;5.39;72.62;101290.66;5054697;28;45564;-65
2022/12/03 01:07:31;;;;;;;;;50.25;38.75;;;;;5.36;73.09;101289.66;5051984;28;45461;-64
2022/12/03 01:09:56;;;;;;;;;49.00;39.75;;;;;5.37;72.52;101283.66;5026115;28;45384;-64
2022/12/03 01:12:22;;;;;;;;;54.50;44.25;;;;;5.38;71.81;101268.09;5045375;28;45831;-65
2022/12/03 01:14:48;;;;;;;;;49.75;37.50;;;;;5.29;71.88;101271.31;5039055;28;45489;-63
2022/12/03 01:17:13;;;;;;;;;57.00;42.50;;;;;5.25;72.18;101276.34;5018738;28;47126;-63
2022/12/03 01:19:40;;;;;;;;;47.50;37.00;;;;;5.28;72.26;101281.63;5019751;28;45372;-63
2022/12/03 01:22:06;;;;;;;;;52.50;38.50;;;;;5.22;72.24;101284.00;5027585;28;45437;-65
2022/12/03 01:24:31;;;;;;;;;46.50;35.50;;;;;5.29;72.95;101296.38;5047608;28;45401;-64
2022/12/03 01:26:57;;;;;;;;;52.00;38.25;;;;;5.19;72.47;101257.94;5037539;28;46376;-63
2022/12/03 01:29:23;;;;;;;;;48.75;37.00;;;;;5.33;72.39;101264.47;5024896;28;45767;-63
2022/12/03 01:34:32;;;;;;;;;54.50;41.50;;;;;5.43;72.34;101276.91;5045363;28;45665;-65
2022/12/03 01:36:58;;;;;;;;;41.50;34.00;;;;;5.41;72.63;101268.22;5052251;28;46648;-64
2022/12/03 01:39:23;;;;;;;;;50.50;39.75;;;;;5.46;71.57;101269.22;5047025;28;45422;-63
2022/12/03 01:41:51;;;;;;;;;50.25;36.75;;;;;5.42;71.15;101276.88;5047096;28;45334;-64
2022/12/03 01:44:27;;;;;;;;;49.00;39.75;;;;;5.35;71.17;101273.19;5041121;28;45426;-63
2022/12/03 01:46:55;;;;;;;;;51.75;39.25;;;;;5.36;71.39;101292.25;5037139;28;47363;-66
2022/12/03 01:49:55;;;;;;;;;51.25;39.00;;;;;5.28;72.08;101281.63;5038122;28;45425;-70
2022/12/03 01:52:29;;;;;;;;;52.75;39.25;;;;;5.35;71.66;101290.50;5047191;28;46061;-64
2022/12/03 01:54:57;;;;;;;;;51.75;37.00;;;;;5.32;71.57;101283.50;5034328;28;45639;-64
2022/12/03 01:57:33;;;;;;;;;50.50;37.00;;;;;5.35;71.97;101285.31;5033847;28;45585;-66
2022/12/03 01:59:59;;;;;;;;;46.75;37.00;;;;;5.32;71.73;101280.91;5038377;28;45387;-67
2022/12/03 02:02:29;;;;;;;;;45.00;35.00;;;;;5.19;72.05;101239.78;5038646;28;45347;-66
2022/12/03 02:04:56;;;;;;;;;47.50;36.25;;;;;5.50;71.22;101286.69;5041420;28;45471;-67
2022/12/03 02:07:30;;;;;;;;;50.50;36.25;;;;;5.45;71.66;101277.84;5040306;28;46845;-69
2022/12/03 02:09:59;;;;;;;;;53.00;35.50;;;;;5.39;70.72;101267.28;5033896;28;45600;-68
2022/12/03 02:12:33;;;;;;;;;41.00;33.75;;;;;5.50;70.93;101283.19;5046793;28;45799;-65
2022/12/03 02:14:59;;;;;;;;;49.25;36.75;;;;;5.46;71.43;101277.03;5035495;28;45641;-68
2022/12/03 02:17:26;;;;;;;;;54.50;40.50;;;;;5.49;70.23;101279.72;5017709;28;46719;-71
2022/12/03 02:19:52;;;;;;;;;52.25;37.50;;;;;5.42;70.73;101279.47;5037036;28;45565;-65
2022/12/03 02:22:36;;;;;;;;;52.00;36.75;;;;;5.42;70.50;101288.16;5037953;28;45419;-64
2022/12/03 02:25:12;;;;;;;;;46.75;36.50;;;;;5.33;71.12;101272.25;5037423;28;45173;-68
2022/12/03 02:27:37;;;;;;;;;50.00;35.75;;;;;5.38;71.17;101277.59;5034418;28;45705;-65
2022/12/03 02:30:05;;;;;;;;;47.25;37.25;;;;;5.43;71.24;101269.09;5033458;28;45802;-65
2022/12/03 02:32:30;;;;;;;;;51.50;42.00;;;;;5.58;70.83;101281.72;5037417;28;45458;-65
2022/12/03 02:34:56;;;;;;;;;54.25;43.00;;;;;5.51;71.22;101278.03;5033649;28;45248;-66
2022/12/03 02:37:28;;;;;;;;;45.75;36.50;;;;;5.63;71.02;101277.53;5033850;28;46183;-63
2022/12/03 02:39:57;;;;;;;;;50.00;35.00;;;;;5.70;70.87;101276.91;5029226;28;45400;-65
2022/12/03 02:42:35;;;;;;;;;44.75;35.25;;;;;5.76;70.96;101278.78;5050799;28;45544;-69
2022/12/03 02:45:06;;;;;;;;;47.00;36.00;;;;;5.79;70.15;101276.31;5035898;28;45498;-71
2022/12/03 02:47:37;;;;;;;;;47.25;36.00;;;;;5.75;70.44;101258.84;5043274;28;45454;-69
2022/12/03 02:50:03;;;;;;;;;45.25;36.00;;;;;5.90;70.11;101269.69;5033811;28;45505;-70
2022/12/03 02:52:29;;;;;;;;;49.25;36.75;;;;;5.91;70.27;101268.00;5047872;28;45618;-65
2022/12/03 02:54:55;;;;;;;;;53.25;40.00;;;;;5.91;69.86;101263.66;5049587;28;45445;-65
2022/12/03 02:57:20;;;;;;;;;57.75;43.50;;;;;5.93;69.79;101264.59;5039565;28;45525;-64
2022/12/03 02:59:46;;;;;;;;;51.75;40.75;;;;;5.79;69.89;101252.91;5045439;28;45435;-65
2022/12/03 03:02:13;;;;;;;;;52.50;41.25;;;;;5.87;70.29;101261.81;5039159;28;45438;-64
2022/12/03 03:04:40;;;;;;;;;50.00;39.50;;;;;5.88;69.90;101260.06;5026147;28;45515;-63
2022/12/03 03:07:05;;;;;;;;;57.75;43.25;;;;;5.91;69.71;101270.59;5048673;28;45371;-63
2022/12/03 03:09:32;;;;;;;;;60.50;44.25;;;;;5.66;69.89;101253.38;5036455;28;46293;-66
2022/12/03 03:11:58;;;;;;;;;55.75;39.25;;;;;5.68;71.09;101265.56;5046126;28;45469;-66
2022/12/03 03:14:24;;;;;;;;;54.50;43.50;;;;;5.57;70.65;101264.34;5042505;28;45525;-66
2022/12/03 03:16:54;;;;;;;;;56.75;42.00;;;;;5.57;71.23;101264.34;5036781;28;46170;-66
2022/12/03 03:19:23;;;;;;;;;50.75;39.25;;;;;5.57;71.14;101259.16;5033790;28;45588;-63
2022/12/03 03:21:49;;;;;;;;;53.75;40.25;;;;;5.61;71.38;101267.94;5034820;28;45542;-63
2022/12/03 03:24:14;;;;;;;;;53.75;41.75;;;;;5.65;70.70;101264.59;5034340;28;45387;-64
2022/12/03 03:26:40;;;;;;;;;46.00;36.00;;;;;5.65;71.36;101262.88;5034023;28;45552;-64
2022/12/03 03:29:05;;;;;;;;;51.00;39.00;;;;;5.69;70.41;101264.72;5032680;28;45439;-63
2022/12/03 03:31:31;;;;;;;;;50.75;39.75;;;;;5.65;70.62;101251.63;5041259;28;45467;-63
2022/12/03 03:33:57;;;;;;;;;60.50;43.75;;;;;5.59;70.57;101252.28;5033098;28;45510;-63
2022/12/03 03:36:23;;;;;;;;;52.25;40.25;;;;;5.62;70.65;101265.38;5033189;28;46359;-63
2022/12/03 03:38:49;;;;;;;;;53.50;41.50;;;;;5.61;70.13;101265.34;5033090;28;45490;-63
2022/12/03 03:41:15;;;;;;;;;53.50;41.50;;;;;5.57;70.37;101260.88;5039759;28;45549;-63
2022/12/03 03:43:43;;;;;;;;;50.50;39.25;;;;;5.58;70.73;101260.94;5048407;28;45427;-68
2022/12/03 03:46:09;;;;;;;;;47.25;37.00;;;;;5.70;70.63;101265.63;5024469;28;45822;-68
2022/12/03 03:48:35;;;;;;;;;47.25;36.50;;;;;5.69;70.43;101256.91;5035664;28;45811;-65
2022/12/03 03:51:07;;;;;;;;;54.00;40.50;;;;;5.76;70.56;101262.31;5023191;28;45454;-66
2022/12/03 03:53:33;;;;;;;;;56.00;40.75;;;;;5.74;69.44;101257.06;5037460;28;45568;-66
2022/12/03 03:55:59;;;;;;;;;57.25;43.50;;;;;5.69;69.32;101261.25;5032509;28;46621;-66
2022/12/03 03:58:24;;;;;;;;;58.25;43.00;;;;;5.66;69.39;101280.22;5032410;28;45413;-65
2022/12/03 04:00:50;;;;;;;;;53.50;41.50;;;;;5.60;70.29;101273.94;5036582;28;45536;-67
2022/12/03 04:03:16;;;;;;;;;46.25;36.50;;;;;5.60;70.41;101268.75;5032675;28;45728;-65
2022/12/03 04:05:41;;;;;;;;;47.25;36.00;;;;;5.63;69.98;101263.69;5032088;28;45446;-63
2022/12/03 04:08:07;;;;;;;;;54.75;40.00;;;;;5.71;70.26;101276.03;5032905;28;45375;-63
2022/12/03 04:13:17;;;;;;;;;57.75;43.25;;;;;5.66;69.90;101256.84;5049677;28;45489;-64
2022/12/03 04:15:42;;;;;;;;;51.25;40.00;;;;;5.64;69.75;101268.03;5035855;28;46174;-65
2022/12/03 04:22:38;;;;;;;;;54.50;41.75;;;;;5.40;69.45;101258.63;5036305;28;45458;-64
2022/12/03 04:23:37;;;;;;;;;54.25;40.00;;;;;5.32;69.78;101252.31;5040927;28;45597;-70
2022/12/03 04:28:49;;;;;;;;;57.25;44.25;;;;;5.27;70.03;101261.69;5042886;28;45533;-70
2022/12/03 04:36:43;;;;;;;;;49.50;38.25;;;;;5.11;70.79;101244.72;5037412;28;45471;-64
2022/12/03 04:39:09;;;;;;;;;54.50;41.75;;;;;5.05;71.06;101226.34;5037300;28;45548;-64
2022/12/03 04:41:34;;;;;;;;;48.25;35.25;;;;;5.28;71.01;101240.94;5033494;28;45430;-65
2022/12/03 04:46:44;;;;;;;;;51.50;40.25;;;;;5.41;70.65;101249.13;5052241;28;45911;-68
2022/12/03 04:49:09;;;;;;;;;57.50;44.75;;;;;5.38;69.30;101252.50;5052747;28;45521;-68
2022/12/03 04:51:35;;;;;;;;;50.50;34.25;;;;;5.33;70.30;101241.09;5049845;28;45478;-65
2022/12/03 04:54:01;;;;;;;;;52.75;39.00;;;;;5.42;70.31;101253.50;5047526;28;45487;-64
2022/12/03 04:56:27;;;;;;;;;48.25;38.75;;;;;5.40;69.90;101236.97;5049785;28;46163;-66
2022/12/03 04:58:52;;;;;;;;;51.75;39.00;;;;;5.53;69.75;101242.59;5050296;28;45754;-64
2022/12/03 05:01:18;;;;;;;;;52.50;40.00;;;;;5.55;69.81;101241.75;5050884;28;45402;-63
2022/12/03 05:03:43;;;;;;;;;52.00;37.25;;;;;5.55;69.46;101237.44;5051381;28;45366;-63
2022/12/03 05:06:09;;;;;;;;;52.50;40.75;;;;;5.56;69.79;101247.00;5036496;28;47760;-63
2022/12/03 05:08:34;;;;;;;;;52.75;40.00;;;;;5.46;68.80;101234.56;5050151;28;45502;-67
2022/12/03 05:11:00;;;;;;;;;58.50;43.75;;;;;5.40;68.52;101232.66;5042143;28;45406;-67
2022/12/03 05:13:25;;;;;;;;;51.25;41.00;;;;;5.26;69.08;101237.41;5047848;28;45474;-64
2022/12/03 05:15:51;;;;;;;;;54.25;41.50;;;;;5.27;69.33;101233.13;5036873;28;46065;-64
2022/12/03 05:18:17;;;;;;;;;56.50;42.25;;;;;5.30;69.58;101228.88;5034848;28;45493;-63
2022/12/03 05:20:42;;;;;;;;;54.75;40.75;;;;;5.28;69.16;101246.13;5040886;28;45517;-65
2022/12/03 05:23:10;;;;;;;;;54.50;41.50;;;;;5.15;69.52;101235.31;5038785;28;45554;-64
2022/12/03 05:25:35;;;;;;;;;54.25;41.50;;;;;5.17;69.82;101250.09;5039948;28;46067;-64
2022/12/03 05:28:01;;;;;;;;;45.75;35.00;;;;;5.09;70.74;101239.47;5038791;28;45538;-63
2022/12/03 05:30:27;;;;;;;;;53.00;40.00;;;;;5.09;70.21;101239.47;5038081;28;45344;-65
2022/12/03 05:32:52;;;;;;;;;45.25;34.75;;;;;5.17;70.43;101231.03;5040538;28;45489;-65
2022/12/03 05:35:18;;;;;;;;;56.50;42.00;;;;;5.25;69.42;101235.66;5040604;28;46069;-64
2022/12/03 05:37:44;;;;;;;;;53.50;38.75;;;;;5.21;68.96;101239.00;5043365;28;45548;-63
2022/12/03 05:40:10;;;;;;;;;54.25;38.00;;;;;5.15;70.10;101250.88;5038286;28;45827;-66
2022/12/03 05:42:55;;;;;;;;;51.25;37.25;;;;;5.14;69.54;101239.63;5047329;28;45735;-63
2022/12/03 05:45:25;;;;;;;;;50.75;40.50;;;;;5.24;69.21;101239.09;5042710;28;46641;-66
2022/12/03 05:47:52;;;;;;;;;42.50;33.75;;;;;5.19;69.14;101234.56;5022596;28;45542;-64
2022/12/03 05:50:19;;;;;;;;;46.50;37.00;;;;;5.20;69.67;101242.44;5040033;28;45347;-64
2022/12/03 05:52:44;;;;;;;;;48.75;39.75;;;;;5.21;69.60;101236.38;5055216;28;45505;-66
2022/12/03 05:55:10;;;;;;;;;51.25;39.50;;;;;5.19;69.01;101242.38;5053223;28;46173;-66
2022/12/03 05:57:36;;;;;;;;;50.25;39.25;;;;;5.10;69.00;101228.28;5051226;28;45920;-65
2022/12/03 06:00:04;;;;;;;;;42.25;34.00;;;;;5.13;70.06;101237.88;5046836;28;45418;-69
2022/12/03 06:02:30;;;;;;;;;49.50;35.75;;;;;5.14;69.31;101224.03;5041648;28;45243;-69
2022/12/03 06:04:56;;;;;;;;;44.00;36.25;;;;;5.10;69.13;101230.88;5040494;28;45666;-67
2022/12/03 06:07:21;;;;;;;;;49.50;36.75;;;;;5.19;69.57;101221.59;5038542;28;45453;-64
2022/12/03 06:09:47;;;;;;;;;41.00;32.75;;;;;5.25;69.67;101234.78;5036473;28;45815;-69
2022/12/03 06:12:12;;;;;;;;;48.75;38.25;;;;;5.24;69.47;101213.13;5047140;28;45373;-67
2022/12/03 06:14:39;;;;;;;;;48.50;38.75;;;;;5.22;69.61;101230.38;5038467;28;45479;-65
2022/12/03 06:17:05;;;;;;;;;44.00;32.50;;;;;5.15;69.34;101228.44;5026841;28;45592;-68
2022/12/03 06:19:31;;;;;;;;;46.75;35.75;;;;;5.08;69.53;101236.84;5020697;28;45451;-63
2022/12/03 06:21:57;;;;;;;;;52.50;41.75;;;;;5.05;70.06;101234.13;5042929;28;45639;-64
2022/12/03 06:24:23;;;;;;;;;47.75;36.25;;;;;4.89;69.54;101212.88;5034043;28;45450;-65
2022/12/03 06:26:48;;;;;;;;;44.75;36.50;;;;;4.91;69.83;101238.88;5035490;28;45852;-66
2022/12/03 06:29:14;;;;;;;;;48.50;35.25;;;;;4.89;70.11;101237.97;5036228;28;45727;-69
2022/12/03 06:31:39;;;;;;;;;50.00;36.75;;;;;4.87;69.16;101217.13;5044539;28;45568;-64
2022/12/03 06:34:05;;;;;;;;;46.25;37.00;;;;;4.88;69.38;101220.59;5030443;28;46955;-64
2022/12/03 06:36:30;;;;;;;;;46.00;36.75;;;;;4.85;69.41;101233.50;5034284;28;45691;-63
2022/12/03 06:38:56;;;;;;;;;39.00;33.50;;;;;4.85;69.60;101226.59;5030733;28;45582;-64
2022/12/03 06:41:21;;;;;;;;;43.25;35.25;;;;;4.91;69.62;101231.09;5049232;28;45573;-64
2022/12/03 06:43:47;;;;;;;;;44.00;34.50;;;;;4.90;69.86;101231.94;5024978;28;47148;-64
2022/12/03 06:46:12;;;;;;;;;41.75;32.25;;;;;4.83;69.85;101227.38;5049500;28;45439;-63
2022/12/03 06:48:38;;;;;;;;;37.75;32.25;;;;;4.84;70.04;101230.03;5048277;28;45534;-62
2022/12/03 06:51:03;;;;;;;;;33.50;29.75;;;;;4.84;70.14;101216.13;5047559;28;45605;-66
2022/12/03 06:53:29;;;;;;;;;39.00;32.75;;;;;4.89;69.33;101220.66;5050209;28;45488;-63
2022/12/03 06:55:55;;;;;;;;;46.50;33.00;;;;;5.05;69.15;101241.91;5045582;28;45325;-63
2022/12/03 06:58:21;;;;;;;;;42.25;34.75;;;;;5.04;69.08;101240.16;5051155;28;45414;-63
2022/12/03 07:00:47;;;;;;;;;41.75;35.00;;;;;5.04;68.91;101248.84;5044172;28;45498;-63
2022/12/03 07:03:12;;;;;;;;;45.75;33.50;;;;;5.04;69.65;101224.59;5045050;28;46257;-64
2022/12/03 07:05:38;;;;;;;;;49.50;38.50;;;;;5.12;68.49;101236.09;5048676;28;45444;-63
2022/12/03 07:08:04;;;;;;;;;45.25;33.75;;;;;5.08;67.95;101242.03;5046965;28;45468;-64
2022/12/03 07:10:30;;;;;;;;;45.50;34.50;;;;;4.94;68.60;101230.31;5030614;28;45495;-64
2022/12/03 07:12:56;;;;;;;;;41.25;35.25;;;;;5.06;68.05;101235.91;5028157;28;46533;-63
2022/12/03 07:15:21;;;;;;;;;41.25;34.00;;;;;4.86;68.67;101211.88;5033851;28;45502;-61
2022/12/03 07:17:47;;;;;;;;;39.00;32.50;;;;;5.06;67.93;101239.38;5029335;28;45330;-64
2022/12/03 07:20:12;;;;;;;;;34.25;29.50;;;;;5.05;67.70;101226.34;5025402;28;45464;-64
2022/12/03 07:22:38;;;;;;;;;37.75;33.25;;;;;5.08;68.33;101235.13;5044190;28;46257;-63
2022/12/03 07:25:05;;;;;;;;;48.25;35.25;;;;;5.07;67.73;101235.94;5036869;28;45398;-62
2022/12/03 07:27:30;;;;;;;;;41.00;31.00;;;;;5.02;68.46;101241.81;5040282;28;45471;-63
2022/12/03 07:29:56;;;;;;;;;40.50;32.25;;;;;5.04;68.10;101234.97;5033115;28;45494;-67
2022/12/03 07:32:21;;;;;;;;;38.50;32.50;;;;;5.13;68.36;101243.06;5032852;28;45770;-66
2022/12/03 07:34:50;;;;;;;;;43.75;33.75;;;;;5.13;67.28;101248.25;5032420;28;45353;-65
2022/12/03 07:37:16;;;;;;;;;43.75;33.25;;;;;5.03;67.98;101241.91;5033202;28;45444;-64
2022/12/03 07:39:41;;;;;;;;;39.50;33.50;;;;;5.03;67.48;101248.78;5034049;28;45653;-63
2022/12/03 07:42:08;;;;;;;;;39.50;31.00;;;;;4.99;67.66;101236.53;5037187;28;46155;-64
2022/12/03 07:44:34;;;;;;;;;37.75;31.25;;;;;5.04;68.32;101251.44;5033192;28;45364;-65
2022/12/03 07:46:59;;;;;;;;;37.25;32.75;;;;;5.13;68.29;101252.59;5036657;28;45791;-65
2022/12/03 07:49:26;;;;;;;;;37.25;30.75;;;;;5.10;67.06;101241.25;5037503;28;45601;-63
2022/12/03 07:51:53;;;;;;;;;37.75;31.75;;;;;5.00;67.60;101243.50;5034881;28;45716;-64
2022/12/03 07:54:25;;;;;;;;;33.50;29.75;;;;;5.10;68.03;101255.94;5058231;28;45409;-64
2022/12/03 07:56:50;;;;;;;;;36.50;32.00;;;;;5.12;67.97;101251.66;5055550;28;45876;-71
2022/12/03 07:59:17;;;;;;;;;34.75;32.00;;;;;5.16;67.23;101258.75;5052524;28;45391;-67
2022/12/03 08:01:44;;;;;;;;;34.50;29.75;;;;;5.10;67.49;101256.84;5048868;28;46828;-69
2022/12/03 08:04:11;;;;;;;;;37.25;32.75;;;;;5.09;67.41;101256.78;5038265;28;45426;-63
2022/12/03 08:06:37;;;;;;;;;37.50;30.75;;;;;5.13;67.70;101266.44;5057094;28;45798;-65
